Time;durP1;ratioP1;P1;durP2;ratioP2;P2;SDS_P1;SDS_P2;PMS_P1;PMS_P2;Temp;Humidity;BMP_temperature;BMP_pressure;BME280_temperature;BME280_humidity;BME280_pressure;Samples;Min_cycle;Max_cycle;Signal;HPM_P1;HPM_P2
2021/03/10 00:00:35;;;;;;;80.97;41.70;;;7.00;99.90;;;;;;1930811;73;21077;-69
2021/03/10 00:03:03;;;;;;;76.12;41.40;;;6.90;99.90;;;;;;1939933;73;21058;-69
2021/03/10 00:05:30;;;;;;;77.10;40.80;;;6.90;99.90;;;;;;1939543;73;21136;-69
2021/03/10 00:07:58;;;;;;;74.05;40.60;;;7.00;99.90;;;;;;1930321;73;21582;-69
2021/03/10 00:10:25;;;;;;;77.12;40.90;;;7.00;99.90;;;;;;1936645;71;21033;-69
2021/03/10 00:12:53;;;;;;;74.03;41.45;;;7.00;99.90;;;;;;1936368;73;21010;-69
2021/03/10 00:15:21;;;;;;;80.57;42.78;;;7.00;99.90;;;;;;1931274;73;21037;-69
2021/03/10 00:17:48;;;;;;;76.65;42.23;;;7.00;99.90;;;;;;1936261;73;21393;-69
2021/03/10 00:20:17;;;;;;;75.65;40.48;;;7.00;99.90;;;;;;1931634;73;20998;-69
2021/03/10 00:22:45;;;;;;;78.25;41.55;;;7.00;99.90;;;;;;1929567;73;21036;-69
2021/03/10 00:25:13;;;;;;;81.02;41.48;;;7.00;99.90;;;;;;1934851;73;21617;-69
2021/03/10 00:27:41;;;;;;;84.47;43.65;;;6.90;99.90;;;;;;1929643;73;21259;-69
2021/03/10 00:30:10;;;;;;;72.60;39.63;;;6.90;99.90;;;;;;1932654;73;21633;-69
2021/03/10 00:32:38;;;;;;;73.95;40.63;;;6.90;99.90;;;;;;1936575;73;21245;-69
2021/03/10 00:35:07;;;;;;;79.92;41.85;;;6.90;99.90;;;;;;1927127;73;21656;-69
2021/03/10 00:37:35;;;;;;;76.30;43.10;;;6.90;99.90;;;;;;1935103;73;21208;-69
2021/03/10 00:40:03;;;;;;;77.00;42.95;;;6.90;99.90;;;;;;1927743;73;21103;-69
2021/03/10 00:42:31;;;;;;;77.72;41.77;;;7.00;99.90;;;;;;1934276;73;21061;-69
2021/03/10 00:44:58;;;;;;;78.25;42.50;;;7.00;99.90;;;;;;1931384;73;21131;-68
2021/03/10 00:47:26;;;;;;;79.70;42.78;;;6.90;99.90;;;;;;1932365;73;21158;-70
2021/03/10 00:49:53;;;;;;;76.25;42.20;;;6.80;99.90;;;;;;1940541;73;21058;-70
2021/03/10 00:52:21;;;;;;;71.60;40.80;;;6.90;99.90;;;;;;1930112;73;21104;-70
2021/03/10 00:54:48;;;;;;;72.62;41.10;;;6.90;99.90;;;;;;1936575;73;21174;-70
2021/03/10 00:57:16;;;;;;;76.67;41.88;;;6.80;99.90;;;;;;1929001;73;21084;-70
2021/03/10 00:59:43;;;;;;;79.90;42.23;;;6.80;99.90;;;;;;1929728;73;21217;-70
2021/03/10 01:02:11;;;;;;;74.03;41.58;;;6.80;99.90;;;;;;1935016;73;21116;-70
2021/03/10 01:04:38;;;;;;;84.92;45.65;;;6.90;99.90;;;;;;1928681;73;21077;-70
2021/03/10 01:07:06;;;;;;;76.35;41.60;;;6.90;99.90;;;;;;1932726;73;22019;-70
2021/03/10 01:09:33;;;;;;;77.62;40.60;;;6.90;99.90;;;;;;1932599;73;21062;-70
2021/03/10 01:12:01;;;;;;;80.22;42.67;;;7.00;99.90;;;;;;1928361;73;21108;-70
2021/03/10 01:14:28;;;;;;;81.67;44.58;;;7.00;99.90;;;;;;1927726;73;21174;-70
2021/03/10 01:16:56;;;;;;;82.85;43.98;;;7.00;99.90;;;;;;1930905;73;21037;-70
2021/03/10 01:19:23;;;;;;;85.55;46.30;;;7.00;99.90;;;;;;1933988;73;21069;-70
2021/03/10 01:21:51;;;;;;;92.22;46.40;;;7.00;99.90;;;;;;1933232;73;21206;-70
2021/03/10 01:24:18;;;;;;;84.62;47.35;;;6.90;99.90;;;;;;1924620;73;21061;-70
2021/03/10 01:26:45;;;;;;;82.33;46.65;;;6.80;99.90;;;;;;1934726;73;21576;-70
2021/03/10 01:29:13;;;;;;;91.65;46.02;;;6.90;99.90;;;;;;1934920;73;21136;-70
2021/03/10 01:31:41;;;;;;;83.50;46.35;;;6.90;99.90;;;;;;1926254;73;21120;-70
2021/03/10 01:34:09;;;;;;;80.30;45.20;;;6.90;99.90;;;;;;1929670;73;21143;-70
2021/03/10 01:36:36;;;;;;;87.05;46.77;;;6.90;99.90;;;;;;1937229;73;21154;-70
2021/03/10 01:39:04;;;;;;;83.95;45.17;;;6.90;99.90;;;;;;1929906;72;21073;-70
2021/03/10 01:41:31;;;;;;;86.08;47.33;;;6.90;99.90;;;;;;1930948;73;21093;-70
2021/03/10 01:43:59;;;;;;;85.65;46.60;;;6.90;99.90;;;;;;1928451;73;21057;-70
2021/03/10 01:46:29;;;;;;;87.65;47.35;;;7.00;99.90;;;;;;1930819;73;21069;-70
2021/03/10 01:48:57;;;;;;;94.42;48.08;;;7.00;99.90;;;;;;1927095;73;21410;-70
2021/03/10 01:51:25;;;;;;;81.60;46.63;;;7.00;99.90;;;;;;1925443;73;21617;-70
2021/03/10 01:53:52;;;;;;;79.07;45.95;;;7.00;99.90;;;;;;1931507;73;21041;-70
2021/03/10 01:56:23;;;;;;;78.80;45.55;;;7.00;99.90;;;;;;1925797;73;21085;-70
2021/03/10 01:58:51;;;;;;;84.77;45.40;;;7.10;99.90;;;;;;1933681;73;21162;-70
2021/03/10 02:01:19;;;;;;;80.15;44.13;;;7.10;99.90;;;;;;1926206;73;21643;-70
2021/03/10 02:03:46;;;;;;;86.67;45.10;;;7.10;99.90;;;;;;1933893;73;21596;-70
2021/03/10 02:06:20;;;;;;;89.47;48.00;;;7.10;99.90;;;;;;1926717;73;21573;-70
2021/03/10 02:08:50;;;;;;;89.95;47.05;;;7.10;99.90;;;;;;1922180;73;21151;-70
2021/03/10 02:11:24;;;;;;;89.05;48.13;;;7.10;99.90;;;;;;1921117;73;21124;-70
2021/03/10 02:14:03;;;;;;;96.12;49.08;;;7.10;99.90;;;;;;1926485;73;21096;-71
2021/03/10 02:16:45;;;;;;;94.30;48.08;;;7.10;99.90;;;;;;1930506;73;21006;-68
2021/03/10 02:19:38;;;;;;;92.17;46.83;;;7.10;99.90;;;;;;1931097;73;21566;-71
2021/03/10 02:22:33;;;;;;;92.90;46.90;;;7.10;99.90;;;;;;1928771;72;21053;-68
2021/03/10 02:25:23;;;;;;;90.67;47.70;;;7.00;99.90;;;;;;1936444;73;21180;-68
2021/03/10 02:27:58;;;;;;;89.65;47.50;;;7.00;99.90;;;;;;1934278;73;21147;-69
2021/03/10 02:30:28;;;;;;;90.28;49.00;;;7.10;99.90;;;;;;1931000;73;21605;-68
2021/03/10 02:33:01;;;;;;;90.00;45.63;;;7.10;99.90;;;;;;1934131;73;21061;-68
2021/03/10 02:35:31;;;;;;;95.20;50.08;;;7.10;99.90;;;;;;1932729;73;21115;-69
2021/03/10 02:38:01;;;;;;;103.97;49.67;;;7.10;99.90;;;;;;1926878;73;21128;-68
2021/03/10 02:40:30;;;;;;;99.85;48.38;;;7.10;99.90;;;;;;1930298;71;21467;-68
2021/03/10 02:42:58;;;;;;;97.57;49.23;;;7.00;99.90;;;;;;1932931;73;21232;-69
2021/03/10 02:45:28;;;;;;;99.15;50.43;;;7.10;99.90;;;;;;1936161;73;21135;-69
2021/03/10 02:48:01;;;;;;;94.03;48.80;;;7.10;99.90;;;;;;1932860;73;21084;-68
2021/03/10 02:50:29;;;;;;;93.58;50.45;;;7.10;99.90;;;;;;1929503;73;21593;-69
2021/03/10 02:52:58;;;;;;;99.20;49.65;;;7.10;99.90;;;;;;1931788;73;21055;-69
2021/03/10 02:55:26;;;;;;;94.13;47.95;;;7.10;99.90;;;;;;1928801;73;21158;-68
2021/03/10 02:57:54;;;;;;;89.80;48.23;;;7.10;99.90;;;;;;1931318;73;21046;-68
2021/03/10 03:00:25;;;;;;;90.17;45.58;;;7.10;99.90;;;;;;1931058;73;21530;-68
2021/03/10 03:02:52;;;;;;;86.02;45.70;;;7.10;99.90;;;;;;1930870;73;21162;-68
2021/03/10 03:05:20;;;;;;;81.72;45.17;;;7.10;99.90;;;;;;1928795;73;21069;-68
2021/03/10 03:07:49;;;;;;;83.27;45.38;;;7.10;99.90;;;;;;1930331;73;21104;-71
2021/03/10 03:10:22;;;;;;;85.03;46.90;;;7.10;99.90;;;;;;1932073;73;21049;-69
2021/03/10 03:12:51;;;;;;;84.07;46.23;;;7.10;99.90;;;;;;1934910;73;21230;-68
2021/03/10 03:15:22;;;;;;;79.82;44.20;;;7.10;99.90;;;;;;1929232;73;21529;-68
2021/03/10 03:17:50;;;;;;;79.85;44.30;;;7.10;99.90;;;;;;1928362;73;21391;-68
2021/03/10 03:20:19;;;;;;;81.85;44.45;;;7.10;99.90;;;;;;1930539;73;21165;-68
2021/03/10 03:22:50;;;;;;;82.92;44.48;;;7.10;99.90;;;;;;1935100;73;21040;-68
2021/03/10 03:25:28;;;;;;;79.63;45.50;;;7.10;99.90;;;;;;1925652;73;21048;-68
2021/03/10 03:27:58;;;;;;;79.22;43.73;;;7.10;99.90;;;;;;1931520;73;21076;-70
2021/03/10 03:30:28;;;;;;;86.67;44.95;;;7.00;99.90;;;;;;1929852;71;21324;-70
2021/03/10 03:32:56;;;;;;;80.32;45.45;;;7.00;99.90;;;;;;1933257;73;21103;-70
2021/03/10 03:35:24;;;;;;;75.95;44.00;;;7.00;99.90;;;;;;1928929;73;21151;-70
2021/03/10 03:37:53;;;;;;;78.05;44.73;;;7.00;99.90;;;;;;1930210;73;21617;-70
2021/03/10 03:40:23;;;;;;;78.28;44.48;;;7.10;99.90;;;;;;1931555;72;21065;-70
2021/03/10 03:42:53;;;;;;;75.20;43.30;;;7.00;99.90;;;;;;1929909;73;21080;-70
2021/03/10 03:45:22;;;;;;;77.80;43.95;;;7.00;99.90;;;;;;1933688;73;21084;-70
2021/03/10 03:47:54;;;;;;;74.12;41.88;;;7.00;99.90;;;;;;1929819;73;21125;-70
2021/03/10 03:50:24;;;;;;;70.12;42.15;;;7.00;99.90;;;;;;1931442;73;21621;-70
2021/03/10 03:52:53;;;;;;;74.22;43.23;;;7.00;99.90;;;;;;1932941;73;21150;-68
2021/03/10 03:55:21;;;;;;;76.07;43.45;;;7.00;99.90;;;;;;1929844;73;21108;-69
2021/03/10 03:57:48;;;;;;;70.55;42.73;;;7.00;99.90;;;;;;1928301;73;21104;-69
2021/03/10 04:00:20;;;;;;;72.00;43.30;;;7.00;99.90;;;;;;1931066;73;21617;-69
2021/03/10 04:02:48;;;;;;;78.72;45.03;;;7.00;99.90;;;;;;1935121;73;21136;-69
2021/03/10 04:05:18;;;;;;;71.22;43.17;;;7.10;99.90;;;;;;1928398;72;21092;-69
2021/03/10 04:07:56;;;;;;;77.78;44.83;;;7.00;99.90;;;;;;1932702;73;21022;-69
2021/03/10 04:10:33;;;;;;;78.67;44.98;;;7.00;99.90;;;;;;1928895;73;21037;-69
2021/03/10 04:13:02;;;;;;;79.67;45.98;;;7.00;99.90;;;;;;1930299;73;21483;-69
2021/03/10 04:15:31;;;;;;;74.53;44.23;;;7.00;99.90;;;;;;1927835;73;21054;-68
2021/03/10 04:17:59;;;;;;;76.35;44.67;;;7.00;99.90;;;;;;1930140;73;21643;-69
2021/03/10 04:20:27;;;;;;;76.15;44.93;;;7.00;99.90;;;;;;1930933;73;21718;-69
2021/03/10 04:22:55;;;;;;;74.62;44.55;;;7.00;99.90;;;;;;1931536;73;20990;-69
2021/03/10 04:25:22;;;;;;;77.78;44.90;;;7.00;99.90;;;;;;1933871;73;21029;-68
2021/03/10 04:27:50;;;;;;;75.90;44.85;;;7.00;99.90;;;;;;1926113;73;21507;-68
2021/03/10 04:30:18;;;;;;;70.97;41.90;;;7.00;99.90;;;;;;1929591;73;21542;-69
2021/03/10 04:32:46;;;;;;;79.40;45.85;;;7.00;99.90;;;;;;1919806;73;21075;-70
2021/03/10 04:35:14;;;;;;;74.92;43.92;;;7.00;99.90;;;;;;1922207;73;21209;-70
2021/03/10 04:37:41;;;;;;;73.47;43.87;;;6.90;99.90;;;;;;1927928;73;21565;-70
2021/03/10 04:40:10;;;;;;;76.22;44.58;;;6.90;99.90;;;;;;1924555;73;21116;-69
2021/03/10 04:42:38;;;;;;;78.83;43.60;;;6.90;99.90;;;;;;1909349;73;21119;-70
2021/03/10 04:45:09;;;;;;;81.08;45.12;;;6.90;99.90;;;;;;1894791;74;21061;-69
2021/03/10 04:47:37;;;;;;;75.12;43.70;;;7.00;99.90;;;;;;1897359;74;21241;-70
2021/03/10 04:50:07;;;;;;;80.07;43.78;;;7.00;99.90;;;;;;1893283;74;21701;-69
2021/03/10 04:52:34;;;;;;;78.07;45.92;;;7.00;99.90;;;;;;1898419;74;21084;-69
2021/03/10 04:55:02;;;;;;;73.95;43.98;;;7.00;99.90;;;;;;1895078;74;21218;-71
2021/03/10 04:57:30;;;;;;;77.20;43.87;;;7.00;99.90;;;;;;1895858;74;21081;-69
2021/03/10 04:59:57;;;;;;;75.20;44.18;;;7.00;99.90;;;;;;1896905;74;21616;-69
2021/03/10 05:02:25;;;;;;;73.87;42.83;;;7.00;99.90;;;;;;1898702;74;21122;-71
2021/03/10 05:04:52;;;;;;;74.25;43.00;;;7.00;99.90;;;;;;1905216;74;21034;-70
2021/03/10 05:07:20;;;;;;;76.65;44.93;;;7.00;99.90;;;;;;1894974;74;21108;-71
2021/03/10 05:09:48;;;;;;;78.52;43.98;;;7.00;99.90;;;;;;1895776;74;21077;-71
2021/03/10 05:12:16;;;;;;;74.50;42.85;;;7.00;99.90;;;;;;1896798;73;21634;-71
2021/03/10 05:14:43;;;;;;;72.32;43.02;;;6.90;99.90;;;;;;1896088;74;21148;-71
2021/03/10 05:17:11;;;;;;;77.25;44.63;;;6.80;99.90;;;;;;1898840;74;21185;-70
2021/03/10 05:19:38;;;;;;;71.22;43.13;;;6.80;99.90;;;;;;1895487;74;21049;-71
2021/03/10 05:22:06;;;;;;;75.60;45.43;;;6.80;99.90;;;;;;1892457;74;21573;-73
2021/03/10 05:24:33;;;;;;;73.17;42.62;;;6.90;99.90;;;;;;1895439;74;21073;-70
2021/03/10 05:27:01;;;;;;;68.30;43.08;;;6.90;99.90;;;;;;1900085;74;21134;-68
2021/03/10 05:29:28;;;;;;;71.55;41.85;;;6.90;99.90;;;;;;1901416;74;22145;-69
2021/03/10 05:31:56;;;;;;;72.92;42.48;;;6.90;99.90;;;;;;1895507;74;21906;-71
2021/03/10 05:34:23;;;;;;;77.87;42.73;;;6.70;99.90;;;;;;1899599;74;21086;-69
2021/03/10 05:36:51;;;;;;;79.62;44.50;;;6.70;99.90;;;;;;1894149;74;21046;-69
2021/03/10 05:39:18;;;;;;;82.20;43.95;;;6.60;99.90;;;;;;1896300;74;21065;-69
2021/03/10 05:41:46;;;;;;;79.00;43.17;;;6.40;99.90;;;;;;1897006;74;21602;-69
2021/03/10 05:44:14;;;;;;;79.55;45.60;;;6.50;99.90;;;;;;1897732;74;21225;-69
2021/03/10 05:46:42;;;;;;;85.97;45.78;;;6.50;99.90;;;;;;1899163;74;21081;-69
2021/03/10 05:49:10;;;;;;;91.55;48.58;;;6.70;99.90;;;;;;1896991;74;21121;-69
2021/03/10 05:51:38;;;;;;;86.20;47.58;;;6.70;99.90;;;;;;1900675;73;21144;-69
2021/03/10 05:54:06;;;;;;;86.70;45.60;;;6.80;99.90;;;;;;1894765;74;21130;-70
2021/03/10 05:56:34;;;;;;;94.42;49.88;;;6.80;99.90;;;;;;1896259;74;21096;-69
2021/03/10 05:59:04;;;;;;;87.10;46.80;;;6.80;99.90;;;;;;1894973;74;21077;-71
2021/03/10 06:01:32;;;;;;;90.97;46.98;;;6.80;99.90;;;;;;1895345;74;21175;-70
2021/03/10 06:04:01;;;;;;;80.50;45.63;;;6.80;99.90;;;;;;1893060;74;21145;-68
2021/03/10 06:06:40;;;;;;;71.67;41.15;;;6.80;99.90;;;;;;1897630;74;21225;-69
2021/03/10 06:09:17;;;;;;;72.03;40.88;;;6.80;99.90;;;;;;1900444;74;21098;-69
2021/03/10 06:11:58;;;;;;;71.37;41.35;;;6.70;99.90;;;;;;1898760;74;21268;-68
2021/03/10 06:14:26;;;;;;;70.35;40.85;;;6.80;99.90;;;;;;1899782;74;21034;-69
2021/03/10 06:17:06;;;;;;;70.65;41.80;;;6.70;99.90;;;;;;1903998;74;21069;-69
2021/03/10 06:19:46;;;;;;;71.50;41.10;;;6.70;99.90;;;;;;1895256;74;21018;-69
2021/03/10 06:22:15;;;;;;;79.22;43.08;;;6.50;99.90;;;;;;1892183;74;21579;-68
2021/03/10 06:24:43;;;;;;;75.47;43.73;;;6.50;99.90;;;;;;1896796;74;21104;-70
2021/03/10 06:27:10;;;;;;;78.00;42.78;;;6.60;99.90;;;;;;1899618;74;21524;-69
2021/03/10 06:29:38;;;;;;;73.50;42.80;;;6.70;99.90;;;;;;1895669;74;21002;-73
2021/03/10 06:32:08;;;;;;;75.47;43.15;;;6.80;99.90;;;;;;1901971;73;21735;-73
2021/03/10 06:34:51;;;;;;;75.28;42.73;;;6.80;99.90;;;;;;1898793;74;21085;-73
2021/03/10 06:37:30;;;;;;;72.17;41.95;;;6.70;99.90;;;;;;1896461;74;21049;-73
2021/03/10 06:40:12;;;;;;;70.28;41.45;;;6.70;99.90;;;;;;1880275;74;21111;-73
2021/03/10 06:42:40;;;;;;;73.90;43.02;;;6.70;99.90;;;;;;1899955;74;21148;-74
2021/03/10 06:45:09;;;;;;;66.45;39.40;;;6.60;99.90;;;;;;1896228;74;21080;-72
2021/03/10 06:47:41;;;;;;;69.75;40.98;;;6.70;99.90;;;;;;1897945;74;21359;-73
2021/03/10 06:50:15;;;;;;;71.12;41.10;;;6.60;99.90;;;;;;1892272;74;21144;-74
2021/03/10 06:52:52;;;;;;;73.02;41.65;;;6.60;99.90;;;;;;1898345;73;21661;-74
2021/03/10 06:55:19;;;;;;;71.50;42.78;;;6.50;99.90;;;;;;1897155;73;21088;-73
2021/03/10 06:57:48;;;;;;;75.12;43.55;;;6.40;99.90;;;;;;1900444;74;21093;-73
2021/03/10 07:00:23;;;;;;;75.75;42.40;;;6.40;99.90;;;;;;1902011;74;21096;-74
2021/03/10 07:02:50;;;;;;;72.85;41.65;;;6.50;99.90;;;;;;1895392;74;21606;-73
2021/03/10 07:05:19;;;;;;;72.15;42.13;;;6.50;99.90;;;;;;1901731;74;21116;-70
2021/03/10 07:07:48;;;;;;;75.65;42.73;;;6.60;99.90;;;;;;1896881;74;21684;-73
2021/03/10 07:10:16;;;;;;;74.72;42.73;;;6.70;99.90;;;;;;1897990;74;21170;-74
2021/03/10 07:12:44;;;;;;;89.37;47.90;;;6.80;99.90;;;;;;1903717;74;21712;-73
2021/03/10 07:15:13;;;;;;;84.47;48.85;;;6.80;99.90;;;;;;1897796;74;21213;-74
2021/03/10 07:17:43;;;;;;;83.82;49.85;;;6.90;99.90;;;;;;1891569;74;21096;-74
2021/03/10 07:20:10;;;;;;;87.05;48.60;;;7.00;99.90;;;;;;1895698;74;21163;-74
2021/03/10 07:22:57;;;;;;;77.37;46.30;;;7.00;99.90;;;;;;1894406;74;21123;-74
2021/03/10 07:25:28;;;;;;;77.17;44.88;;;7.10;99.90;;;;;;1898039;74;21906;-74
2021/03/10 07:28:01;;;;;;;76.20;44.95;;;7.10;99.90;;;;;;1894860;74;21108;-72
2021/03/10 07:30:40;;;;;;;73.22;44.25;;;7.10;99.90;;;;;;1900451;74;21105;-72
2021/03/10 07:33:16;;;;;;;73.20;42.95;;;7.10;99.90;;;;;;1896407;74;21717;-73
2021/03/10 07:35:48;;;;;;;72.00;42.70;;;7.00;99.90;;;;;;1898149;74;21124;-72
2021/03/10 07:38:18;;;;;;;71.07;43.25;;;7.00;99.90;;;;;;1899298;74;21198;-72
2021/03/10 07:41:01;;;;;;;70.35;41.70;;;7.00;99.90;;;;;;1890860;74;21104;-73
2021/03/10 07:43:37;;;;;;;82.65;49.35;;;7.10;99.90;;;;;;1894199;74;21190;-72
2021/03/10 07:46:06;;;;;;;77.27;44.35;;;7.20;99.90;;;;;;1892132;74;21133;-72
2021/03/10 07:48:36;;;;;;;78.97;44.80;;;7.00;99.90;;;;;;1891439;74;21142;-72
2021/03/10 07:51:03;;;;;;;73.92;45.12;;;7.00;99.90;;;;;;1897723;74;21074;-72
2021/03/10 07:53:40;;;;;;;74.92;46.00;;;7.00;99.90;;;;;;1895413;74;21063;-72
2021/03/10 07:56:07;;;;;;;72.10;44.05;;;7.10;99.90;;;;;;1898701;74;21042;-71
2021/03/10 07:58:35;;;;;;;73.57;44.15;;;7.10;99.90;;;;;;1897067;74;21218;-72
2021/03/10 08:01:02;;;;;;;72.15;43.35;;;7.20;99.90;;;;;;1894941;72;21565;-73
2021/03/10 08:03:31;;;;;;;74.03;45.52;;;7.30;99.90;;;;;;1898664;74;21124;-72
2021/03/10 08:06:05;;;;;;;65.45;42.48;;;7.40;99.90;;;;;;1899100;74;21168;-73
2021/03/10 08:08:38;;;;;;;68.80;42.25;;;7.40;99.90;;;;;;1895451;74;21162;-73
2021/03/10 08:14:01;;;;;;;66.28;40.52;;;7.40;99.90;;;;;;1828999;77;21149;-73
2021/03/10 08:16:29;;;;;;;64.40;40.70;;;7.50;99.90;;;;;;1824016;76;21237;-72
2021/03/10 08:18:57;;;;;;;64.20;40.95;;;7.50;99.90;;;;;;1830269;77;21145;-73
2021/03/10 08:21:24;;;;;;;65.57;40.98;;;7.50;99.90;;;;;;1832177;75;21160;-71
2021/03/10 08:23:54;;;;;;;63.08;39.48;;;7.50;99.90;;;;;;1854921;75;21500;-73
2021/03/10 08:26:22;;;;;;;64.72;41.02;;;7.60;99.90;;;;;;1860118;75;21563;-72
2021/03/10 08:28:50;;;;;;;62.20;38.02;;;7.60;99.90;;;;;;1856721;75;21218;-73
2021/03/10 08:31:18;;;;;;;67.12;40.40;;;7.50;99.90;;;;;;1860947;75;21621;-73
2021/03/10 08:33:47;;;;;;;62.45;39.60;;;7.60;99.90;;;;;;1855886;75;21139;-72
2021/03/10 08:36:16;;;;;;;68.00;42.27;;;7.70;99.90;;;;;;1858912;75;21195;-72
2021/03/10 08:38:47;;;;;;;63.25;41.23;;;7.80;99.90;;;;;;1861395;75;21060;-73
2021/03/10 08:41:15;;;;;;;64.87;40.40;;;7.80;99.90;;;;;;1861061;75;21175;-72
2021/03/10 08:43:42;;;;;;;62.30;39.53;;;7.90;99.90;;;;;;1860705;75;21071;-73
2021/03/10 08:46:10;;;;;;;66.57;40.78;;;7.90;99.90;;;;;;1857241;75;21507;-71
2021/03/10 08:48:37;;;;;;;62.33;40.50;;;7.90;99.90;;;;;;1860092;75;21021;-71
2021/03/10 08:51:05;;;;;;;53.90;36.90;;;8.00;99.90;;;;;;1864929;75;21111;-71
2021/03/10 08:53:33;;;;;;;56.90;36.45;;;8.00;99.90;;;;;;1861370;75;21037;-75
2021/03/10 08:56:11;;;;;;;60.00;38.38;;;8.00;99.90;;;;;;1863169;75;21044;-74
2021/03/10 08:58:38;;;;;;;58.60;38.13;;;8.10;99.90;;;;;;1862194;75;21140;-71
2021/03/10 09:01:16;;;;;;;57.93;38.48;;;8.10;99.90;;;;;;1859270;75;21041;-72
2021/03/10 09:03:44;;;;;;;56.13;37.08;;;8.10;99.90;;;;;;1860705;75;21115;-72
2021/03/10 09:06:12;;;;;;;56.13;37.35;;;8.10;99.90;;;;;;1856425;75;21037;-72
2021/03/10 09:08:41;;;;;;;59.60;37.20;;;8.00;99.90;;;;;;1861238;75;21550;-73
2021/03/10 09:11:10;;;;;;;60.05;38.33;;;8.00;99.90;;;;;;1860065;75;21180;-73
2021/03/10 09:13:38;;;;;;;58.80;38.85;;;8.00;99.90;;;;;;1861926;75;21071;-73
2021/03/10 09:16:11;;;;;;;55.45;36.35;;;8.10;99.90;;;;;;1864612;75;21177;-72
2021/03/10 09:18:39;;;;;;;58.48;37.23;;;8.00;99.90;;;;;;1865195;75;21041;-73
2021/03/10 09:21:06;;;;;;;61.30;37.58;;;8.00;99.90;;;;;;1858595;75;21103;-73
2021/03/10 09:23:35;;;;;;;62.48;38.10;;;8.00;99.90;;;;;;1854066;75;21029;-74
2021/03/10 09:26:03;;;;;;;64.10;38.10;;;8.10;99.90;;;;;;1862106;75;21647;-74
2021/03/10 09:28:37;;;;;;;60.90;36.95;;;8.00;99.90;;;;;;1858108;75;21056;-72
2021/03/10 09:31:15;;;;;;;69.50;38.70;;;7.90;99.90;;;;;;1859437;75;21104;-73
2021/03/10 09:33:43;;;;;;;68.42;39.42;;;7.90;99.90;;;;;;1863578;75;21690;-72
2021/03/10 09:36:10;;;;;;;74.20;41.75;;;7.90;99.90;;;;;;1858750;75;21531;-73
2021/03/10 09:38:40;;;;;;;72.30;41.37;;;8.00;99.90;;;;;;1856120;75;21221;-72
2021/03/10 09:41:07;;;;;;;77.35;41.45;;;8.10;99.90;;;;;;1864105;75;21110;-72
2021/03/10 09:43:35;;;;;;;76.02;41.70;;;8.00;99.90;;;;;;1858549;75;21072;-72
2021/03/10 09:46:05;;;;;;;71.80;40.52;;;8.10;99.90;;;;;;1855934;75;22173;-73
2021/03/10 09:48:35;;;;;;;72.80;41.88;;;8.30;99.90;;;;;;1857176;75;21193;-73
2021/03/10 09:51:19;;;;;;;73.28;41.33;;;8.40;99.90;;;;;;1860147;75;21451;-73
2021/03/10 09:53:52;;;;;;;73.50;39.90;;;8.40;99.90;;;;;;1864993;75;21347;-73
2021/03/10 09:56:22;;;;;;;67.17;39.03;;;8.20;99.90;;;;;;1862796;75;21151;-73
2021/03/10 09:58:55;;;;;;;70.40;39.55;;;8.20;99.90;;;;;;1861800;75;21079;-73
2021/03/10 10:01:27;;;;;;;71.30;38.58;;;8.30;99.90;;;;;;1857493;75;21264;-74
2021/03/10 10:03:58;;;;;;;75.52;40.00;;;8.40;99.90;;;;;;1854469;75;21124;-72
2021/03/10 10:06:26;;;;;;;90.03;42.05;;;8.50;99.90;;;;;;1854887;75;21377;-72
2021/03/10 10:08:53;;;;;;;78.35;40.20;;;8.40;99.90;;;;;;1860064;75;21131;-72
2021/03/10 10:11:21;;;;;;;81.32;41.60;;;8.50;99.90;;;;;;1853160;75;21170;-72
2021/03/10 10:13:51;;;;;;;74.90;39.53;;;8.50;99.90;;;;;;1855810;75;21506;-72
2021/03/10 10:16:18;;;;;;;76.75;40.40;;;8.50;99.90;;;;;;1863576;75;21112;-72
2021/03/10 10:18:48;;;;;;;73.75;39.55;;;8.60;99.90;;;;;;1861267;75;21661;-72
2021/03/10 10:21:17;;;;;;;72.53;39.30;;;8.80;99.90;;;;;;1858309;75;21426;-72
2021/03/10 10:23:47;;;;;;;71.30;38.25;;;8.70;99.90;;;;;;1860409;75;21606;-72
2021/03/10 10:26:14;;;;;;;70.72;39.85;;;8.60;99.90;;;;;;1857234;75;21179;-72
2021/03/10 10:28:42;;;;;;;66.25;39.53;;;8.80;99.90;;;;;;1863373;75;21121;-72
2021/03/10 10:31:09;;;;;;;70.37;37.90;;;9.00;99.90;;;;;;1857309;75;21156;-72
2021/03/10 10:33:37;;;;;;;66.00;38.42;;;8.90;99.90;;;;;;1863194;75;21117;-72
2021/03/10 10:36:05;;;;;;;62.60;36.70;;;8.90;99.90;;;;;;1865401;75;21133;-72
2021/03/10 10:38:32;;;;;;;65.32;37.08;;;8.90;99.90;;;;;;1856563;75;21070;-72
2021/03/10 10:41:00;;;;;;;60.33;34.92;;;8.90;99.90;;;;;;1862143;75;21584;-72
2021/03/10 10:43:31;;;;;;;58.83;36.50;;;8.80;99.90;;;;;;1858226;75;21572;-72
2021/03/10 10:45:56;;;;;;;56.55;34.18;;;8.90;99.90;;;;;;1862546;75;21421;-73
2021/03/10 10:48:24;;;;;;;56.63;34.55;;;8.80;99.90;;;;;;1857987;75;21691;-73
2021/03/10 10:50:51;;;;;;;59.73;35.23;;;8.80;99.90;;;;;;1857014;75;21182;-72
2021/03/10 10:53:19;;;;;;;50.85;32.58;;;8.80;99.90;;;;;;1858706;75;21136;-73
2021/03/10 10:55:46;;;;;;;53.98;34.20;;;8.80;99.90;;;;;;1857012;75;21096;-72
2021/03/10 10:58:14;;;;;;;49.88;32.08;;;8.90;99.90;;;;;;1859041;75;21154;-72
2021/03/10 11:00:41;;;;;;;53.78;33.30;;;9.00;99.90;;;;;;1853531;75;21131;-73
2021/03/10 11:03:09;;;;;;;53.35;33.08;;;9.10;99.90;;;;;;1857416;75;21148;-72
2021/03/10 11:05:36;;;;;;;45.92;29.18;;;9.00;99.90;;;;;;1853399;75;21126;-73
2021/03/10 11:08:04;;;;;;;40.58;28.85;;;9.30;99.90;;;;;;1869096;75;21101;-73
2021/03/10 11:10:31;;;;;;;40.95;27.75;;;9.40;99.90;;;;;;1868595;75;21151;-71
2021/03/10 11:12:59;;;;;;;39.83;29.12;;;9.40;99.90;;;;;;1858770;75;21124;-72
2021/03/10 11:15:27;;;;;;;38.48;28.00;;;9.40;99.90;;;;;;1854774;75;21595;-72
2021/03/10 11:17:56;;;;;;;40.75;29.00;;;9.40;99.90;;;;;;1851810;75;21655;-73
2021/03/10 11:20:24;;;;;;;37.93;28.05;;;9.40;99.90;;;;;;1832677;77;21456;-73
2021/03/10 11:22:52;;;;;;;34.95;25.80;;;9.70;99.90;;;;;;1822384;77;21128;-72
2021/03/10 11:25:19;;;;;;;39.05;28.00;;;9.70;99.90;;;;;;1820248;77;21582;-72
2021/03/10 11:27:47;;;;;;;36.13;27.62;;;9.70;99.90;;;;;;1830830;75;21601;-73
2021/03/10 11:30:15;;;;;;;36.65;26.52;;;9.40;99.90;;;;;;1826697;77;21113;-71
2021/03/10 11:32:43;;;;;;;36.50;26.17;;;9.40;99.90;;;;;;1826583;77;21167;-72
2021/03/10 11:35:11;;;;;;;39.60;27.45;;;9.40;99.90;;;;;;1829559;77;21202;-72
2021/03/10 11:37:39;;;;;;;38.90;27.27;;;9.40;99.90;;;;;;1823267;77;21093;-73
2021/03/10 11:40:08;;;;;;;37.42;27.17;;;9.60;99.90;;;;;;1830077;77;21467;-71
2021/03/10 11:42:36;;;;;;;36.93;26.97;;;9.60;99.90;;;;;;1819931;77;21120;-72
2021/03/10 11:45:05;;;;;;;36.75;26.60;;;9.40;99.90;;;;;;1825996;77;21104;-72
2021/03/10 11:47:33;;;;;;;33.23;24.92;;;9.00;99.90;;;;;;1831722;77;21171;-73
2021/03/10 11:50:01;;;;;;;36.60;25.88;;;9.10;99.90;;;;;;1830390;77;21140;-72
2021/03/10 11:52:28;;;;;;;36.45;26.20;;;9.40;99.90;;;;;;1833617;77;21332;-72
2021/03/10 11:54:56;;;;;;;33.80;25.10;;;9.40;99.90;;;;;;1832783;76;21171;-73
2021/03/10 11:57:24;;;;;;;34.98;26.37;;;9.30;99.90;;;;;;1823663;77;21203;-71
2021/03/10 11:59:51;;;;;;;35.80;26.00;;;9.30;99.90;;;;;;1827910;75;21132;-73
2021/03/10 12:02:19;;;;;;;33.38;25.27;;;9.30;99.90;;;;;;1827120;77;21115;-71
2021/03/10 12:04:46;;;;;;;33.67;24.70;;;9.40;99.90;;;;;;1830331;77;21065;-71
2021/03/10 12:07:14;;;;;;;33.33;25.40;;;9.40;99.90;;;;;;1827878;77;21162;-72
2021/03/10 12:09:41;;;;;;;36.98;24.90;;;9.40;99.90;;;;;;1835130;77;22157;-72
2021/03/10 12:12:10;;;;;;;33.58;26.10;;;9.40;99.90;;;;;;1832800;75;21245;-72
2021/03/10 12:14:38;;;;;;;32.75;23.00;;;9.60;99.90;;;;;;1834485;77;21153;-73
2021/03/10 12:17:05;;;;;;;33.42;23.47;;;9.80;99.90;;;;;;1841534;77;21202;-72
2021/03/10 12:19:33;;;;;;;32.50;23.22;;;9.90;99.90;;;;;;1836073;77;21526;-73
2021/03/10 12:22:00;;;;;;;32.23;24.05;;;10.00;99.90;;;;;;1832591;77;21218;-72
2021/03/10 12:24:29;;;;;;;30.62;23.65;;;9.90;99.90;;;;;;1833786;77;21078;-72
2021/03/10 12:26:56;;;;;;;31.20;23.32;;;10.10;99.90;;;;;;1829338;77;21100;-72
2021/03/10 12:29:24;;;;;;;31.33;24.52;;;10.20;99.90;;;;;;1826840;77;21232;-71
2021/03/10 12:31:51;;;;;;;33.55;23.60;;;10.00;99.90;;;;;;1816399;77;21088;-72
2021/03/10 12:34:18;;;;;;;30.57;23.02;;;10.10;99.90;;;;;;1825738;77;21113;-74
2021/03/10 12:36:46;;;;;;;29.80;23.05;;;10.20;99.90;;;;;;1826125;77;21103;-72
2021/03/10 12:39:14;;;;;;;30.90;23.40;;;10.20;99.90;;;;;;1830960;77;21139;-71
2021/03/10 12:41:41;;;;;;;28.67;23.55;;;10.20;99.90;;;;;;1824796;77;21137;-73
2021/03/10 12:44:08;;;;;;;29.98;23.60;;;10.30;99.90;;;;;;1825307;77;21116;-73
2021/03/10 12:46:36;;;;;;;32.53;24.65;;;10.20;99.90;;;;;;1827402;77;21113;-72
2021/03/10 12:49:04;;;;;;;32.50;24.43;;;10.20;99.90;;;;;;1826101;77;21739;-72